createdAt,value
2023-07-26T00:02:16.099Z,88.6
2023-07-26T00:05:16.111Z,88.5
2023-07-26T00:08:16.131Z,88.3
2023-07-26T00:11:16.118Z,88.1
2023-07-26T00:14:16.121Z,87.9
2023-07-26T00:17:16.115Z,87.7
2023-07-26T00:20:16.130Z,87.7
2023-07-26T00:23:16.154Z,87.7
2023-07-26T00:26:16.128Z,87.7
2023-07-26T00:29:16.130Z,87.7
2023-07-26T00:32:16.141Z,87.7
2023-07-26T00:35:16.137Z,87.8
2023-07-26T00:38:16.162Z,87.7
2023-07-26T00:41:16.156Z,87.7
2023-07-26T00:44:16.132Z,87.7
2023-07-26T00:47:16.144Z,87.6
2023-07-26T00:50:16.145Z,87.5
2023-07-26T00:53:16.145Z,87.5
2023-07-26T00:56:16.152Z,87.6
2023-07-26T00:59:16.167Z,87.6
2023-07-26T01:02:16.214Z,87.6
2023-07-26T01:05:16.161Z,87.5
2023-07-26T01:08:16.192Z,87.3
2023-07-26T01:11:16.183Z,87.3
2023-07-26T01:14:16.231Z,87.5
2023-07-26T01:17:16.230Z,87.6
2023-07-26T01:20:16.233Z,87.7
2023-07-26T01:23:16.262Z,87.9
2023-07-26T01:26:16.264Z,88
2023-07-26T01:29:16.307Z,88
2023-07-26T01:32:16.316Z,88.1
2023-07-26T01:35:16.315Z,88.2
2023-07-26T01:38:16.341Z,88.1
2023-07-26T01:41:16.332Z,88.1
2023-07-26T01:44:16.345Z,88.2
2023-07-26T01:47:16.322Z,88.3
2023-07-26T01:50:16.335Z,88.4
2023-07-26T01:53:16.350Z,88.3
2023-07-26T01:56:16.332Z,88.3
2023-07-26T01:59:16.331Z,88.2
2023-07-26T02:02:16.353Z,88
2023-07-26T02:05:16.331Z,87.8
2023-07-26T02:08:16.354Z,87.6
2023-07-26T02:11:16.338Z,87.4
2023-07-26T02:14:16.335Z,87.3
2023-07-26T02:17:16.332Z,87
2023-07-26T02:20:16.336Z,86.8
2023-07-26T02:23:16.349Z,86.6
2023-07-26T02:26:16.345Z,86.4
2023-07-26T02:29:16.347Z,86.4
2023-07-26T02:32:16.353Z,86.3
2023-07-26T02:35:16.339Z,86.1
2023-07-26T02:38:16.371Z,85.9
2023-07-26T02:41:16.352Z,85.8
2023-07-26T02:44:16.349Z,85.8
2023-07-26T02:47:16.479Z,85.7
2023-07-26T02:50:16.386Z,85.6
2023-07-26T02:53:16.360Z,85.5
2023-07-26T02:56:16.357Z,85.3
2023-07-26T02:59:16.357Z,85.3
2023-07-26T03:02:16.405Z,85.1
2023-07-26T03:05:16.363Z,85.1
2023-07-26T03:08:16.382Z,85
2023-07-26T03:11:16.392Z,85.1
2023-07-26T03:14:16.364Z,85.2
2023-07-26T03:17:22.522Z,85.1
2023-07-26T03:20:16.369Z,85.1
2023-07-26T03:23:16.388Z,85.1
2023-07-26T03:26:16.395Z,85.1
2023-07-26T03:29:16.391Z,85
2023-07-26T03:32:16.378Z,85.1
2023-07-26T03:35:16.402Z,85.2
2023-07-26T03:38:16.398Z,85.1
2023-07-26T03:41:16.388Z,85.2
2023-07-26T03:44:16.409Z,85.1
2023-07-26T03:47:16.394Z,85.1
2023-07-26T03:50:16.396Z,85.1
2023-07-26T03:53:16.402Z,85.2
2023-07-26T03:56:16.412Z,85.2
2023-07-26T03:59:16.403Z,85.2
2023-07-26T04:02:16.446Z,85.2
2023-07-26T04:05:16.404Z,85.3
2023-07-26T04:08:16.429Z,85.2
2023-07-26T04:11:16.413Z,85.1
2023-07-26T04:14:16.420Z,85
2023-07-26T04:17:16.442Z,84.7
2023-07-26T04:20:16.417Z,84.7
2023-07-26T04:23:16.450Z,84.4
2023-07-26T04:26:16.434Z,84.2
2023-07-26T04:29:16.429Z,83.9
2023-07-26T04:32:16.430Z,83.7
2023-07-26T04:35:16.431Z,83.5
2023-07-26T04:38:16.447Z,83.4
2023-07-26T04:41:16.440Z,83.2
2023-07-26T04:44:16.442Z,82.8
2023-07-26T04:47:16.455Z,82.7
2023-07-26T04:50:16.447Z,82.7
2023-07-26T04:53:16.490Z,82.5
2023-07-26T04:56:16.471Z,82.4
2023-07-26T04:59:16.454Z,82.2
2023-07-26T05:02:16.482Z,82.4
2023-07-26T05:05:16.482Z,82.3
2023-07-26T05:08:16.507Z,82.2
2023-07-26T05:11:16.498Z,82
2023-07-26T05:14:16.498Z,81.7
2023-07-26T05:17:16.501Z,81.3
2023-07-26T05:20:16.507Z,81.4
2023-07-26T05:23:16.514Z,80.7
2023-07-26T05:26:16.523Z,80.2
2023-07-26T05:29:16.516Z,79.9
2023-07-26T05:32:16.512Z,79
2023-07-26T05:35:16.541Z,79
2023-07-26T05:38:16.543Z,78.5
2023-07-26T05:41:16.539Z,78.4
2023-07-26T05:44:16.533Z,78.3
2023-07-26T05:47:16.537Z,78.3
2023-07-26T05:50:16.540Z,78.3
2023-07-26T05:53:16.567Z,78
2023-07-26T05:56:16.545Z,77.9
2023-07-26T05:59:16.548Z,78
2023-07-26T06:02:16.562Z,78
2023-07-26T06:05:16.553Z,77.6
2023-07-26T06:08:16.561Z,76.6
2023-07-26T06:11:16.560Z,76.4
2023-07-26T06:14:16.564Z,75.8
2023-07-26T06:17:16.567Z,74.8
2023-07-26T06:20:16.580Z,74.5
2023-07-26T06:23:16.584Z,73.9
2023-07-26T06:26:16.582Z,73.7
2023-07-26T06:29:17.927Z,73.4
2023-07-26T06:32:16.587Z,73.7
2023-07-26T06:35:16.601Z,73.5
2023-07-26T06:38:16.608Z,73.4
2023-07-26T06:41:16.598Z,73.1
2023-07-26T06:44:16.594Z,73.2
2023-07-26T06:47:16.612Z,73.8
2023-07-26T06:50:16.617Z,74
2023-07-26T06:53:16.637Z,73.9
2023-07-26T06:56:16.616Z,73.8
2023-07-26T06:59:16.659Z,73.8
2023-07-26T07:02:16.627Z,73.5
2023-07-26T07:05:16.649Z,73.6
2023-07-26T07:08:16.739Z,72.1
2023-07-26T07:11:16.722Z,71.2
2023-07-26T07:14:16.743Z,69.7
2023-07-26T07:17:16.745Z,68.8
2023-07-26T07:20:16.742Z,68.6
2023-07-26T07:23:16.780Z,68
2023-07-26T07:26:16.747Z,67.4
2023-07-26T07:29:16.745Z,66
2023-07-26T07:32:21.924Z,64.7
2023-07-26T07:35:16.750Z,64.1
2023-07-26T07:38:16.787Z,63.2
2023-07-26T07:41:16.751Z,62.6
2023-07-26T07:44:16.754Z,62.7
2023-07-26T07:47:17.492Z,62.9
2023-07-26T07:50:16.757Z,62.8
2023-07-26T07:53:16.780Z,63.1
2023-07-26T07:56:16.757Z,61.9
2023-07-26T07:59:16.796Z,60.5
2023-07-26T08:02:16.765Z,61.8
2023-07-26T08:05:16.765Z,61.9
2023-07-26T08:08:16.810Z,62.5
2023-07-26T08:11:16.793Z,59.6
2023-07-26T08:14:16.759Z,57.6
2023-07-26T08:17:16.781Z,56.9
2023-07-26T08:20:16.769Z,56.7
2023-07-26T08:23:16.775Z,58.4
2023-07-26T08:26:16.763Z,59.9
2023-07-26T08:29:16.782Z,58.6
2023-07-26T08:32:16.766Z,57
2023-07-26T08:35:16.775Z,56.6
2023-07-26T08:38:16.777Z,55.7
2023-07-26T08:41:16.783Z,54
2023-07-26T08:44:16.796Z,53.7
2023-07-26T08:47:16.788Z,54.5
2023-07-26T08:50:16.784Z,55.2
2023-07-26T08:53:16.787Z,55.5
2023-07-26T08:56:16.778Z,56.1
2023-07-26T08:59:16.783Z,57.5
2023-07-26T09:02:16.860Z,59.1
2023-07-26T09:05:16.806Z,61.2
2023-07-26T09:08:17.063Z,62.6
2023-07-26T09:11:16.794Z,62.5
2023-07-26T09:14:18.271Z,63.3
2023-07-26T09:17:16.793Z,63
2023-07-26T09:20:16.799Z,61.7
2023-07-26T09:23:16.903Z,56
2023-07-26T09:26:16.795Z,55
2023-07-26T09:29:16.795Z,54.7
2023-07-26T09:32:16.808Z,55.9
2023-07-26T09:35:16.828Z,59.3
2023-07-26T09:38:16.803Z,67.5
2023-07-26T09:41:16.808Z,72.8
2023-07-26T09:44:16.813Z,76.3
2023-07-26T09:47:16.812Z,75.2
2023-07-26T09:53:16.828Z,78.7
2023-07-26T09:56:16.836Z,80.9
2023-07-26T09:59:16.826Z,81.7
2023-07-26T10:02:16.840Z,82.6
2023-07-26T10:05:16.831Z,83.1
2023-07-26T10:08:16.865Z,83.4
2023-07-26T10:11:16.855Z,82.3
2023-07-26T10:14:16.850Z,80.5
2023-07-26T10:17:16.844Z,78.1
2023-07-26T10:20:16.906Z,75.4
2023-07-26T10:23:16.862Z,72.4
2023-07-26T10:26:16.859Z,68.7
2023-07-26T10:29:17.543Z,68
2023-07-26T10:32:16.868Z,64.3
2023-07-26T10:35:17.348Z,65.5
2023-07-26T10:38:16.874Z,67.2
2023-07-26T10:41:17.218Z,65.9
2023-07-26T10:44:16.907Z,64.4
2023-07-26T10:47:17.351Z,61
2023-07-26T10:50:16.891Z,60.5
2023-07-26T10:53:16.900Z,59
2023-07-26T10:56:16.897Z,57
2023-07-26T10:59:16.919Z,55.6
2023-07-26T11:02:16.920Z,58.2
2023-07-26T11:05:16.974Z,59.4
2023-07-26T11:08:16.918Z,56.2
2023-07-26T11:11:16.922Z,54.8
2023-07-26T11:14:16.943Z,56.1
2023-07-26T11:17:16.964Z,57.7
2023-07-26T11:20:16.954Z,61.1
2023-07-26T11:23:16.952Z,64.8
2023-07-26T11:26:16.954Z,66.6
2023-07-26T11:29:16.974Z,70.5
2023-07-26T11:32:16.966Z,71.5
2023-07-26T11:35:16.968Z,73.6
2023-07-26T11:38:16.991Z,76
2023-07-26T11:41:16.984Z,76.4
2023-07-26T11:44:16.993Z,77.3
2023-07-26T11:47:17.000Z,75.7
2023-07-26T11:50:17.001Z,74
2023-07-26T11:53:25.022Z,72.1
2023-07-26T11:56:17.018Z,69.4
2023-07-26T11:59:17.036Z,70.6
2023-07-26T12:02:17.035Z,71.9
2023-07-26T12:05:17.040Z,73.2
2023-07-26T12:08:17.050Z,72.8
2023-07-26T12:11:17.080Z,72.4
2023-07-26T12:14:17.070Z,71.2
2023-07-26T12:17:17.073Z,72.6
2023-07-26T12:20:27.184Z,73.8
2023-07-26T12:23:17.095Z,74.9
2023-07-26T12:26:17.092Z,75.6
2023-07-26T12:29:17.101Z,76.2
2023-07-26T12:32:17.152Z,77
2023-07-26T12:35:17.119Z,77.2
2023-07-26T12:38:17.128Z,77
2023-07-26T12:41:17.133Z,76.7
2023-07-26T12:44:17.151Z,74.8
2023-07-26T12:47:29.555Z,72.2
2023-07-26T12:50:17.166Z,70.7
2023-07-26T12:53:17.209Z,69.4
2023-07-26T12:56:17.171Z,66.2
2023-07-26T12:59:17.180Z,64.7
2023-07-26T13:02:17.299Z,63
2023-07-26T13:05:17.193Z,62.4
2023-07-26T13:08:17.200Z,61.3
2023-07-26T13:11:17.205Z,60.2
2023-07-26T13:14:17.209Z,59.1
2023-07-26T13:17:17.215Z,59.5
2023-07-26T13:20:17.215Z,60
2023-07-26T13:23:17.263Z,60.2
2023-07-26T13:26:17.234Z,53.7
2023-07-26T13:29:17.245Z,55.5
2023-07-26T13:32:17.250Z,58
2023-07-26T13:35:17.249Z,54.2
2023-07-26T13:38:17.252Z,54.5
2023-07-26T13:41:17.251Z,55.3
2023-07-26T13:44:17.265Z,54.2
2023-07-26T13:47:17.304Z,53
2023-07-26T13:50:17.272Z,52.2
2023-07-26T13:53:17.282Z,52.7
2023-07-26T13:56:17.285Z,54.1
2023-07-26T13:59:17.298Z,54.2
2023-07-26T14:02:17.290Z,54.6
2023-07-26T14:05:17.295Z,53.9
2023-07-26T14:08:17.300Z,53.6
2023-07-26T14:11:17.300Z,53.3
2023-07-26T14:14:17.301Z,53.3
2023-07-26T14:17:17.340Z,52.8
2023-07-26T14:20:17.322Z,51.1
2023-07-26T14:23:17.312Z,52.1
2023-07-26T14:26:17.316Z,51.3
2023-07-26T14:29:17.305Z,50.7
2023-07-26T14:32:17.314Z,51
2023-07-26T14:35:17.317Z,51.1
2023-07-26T14:38:17.310Z,50.4
2023-07-26T14:41:17.322Z,51.7
2023-07-26T14:44:17.319Z,49.9
2023-07-26T14:47:17.372Z,50
2023-07-26T14:50:17.322Z,49.8
2023-07-26T14:53:17.331Z,49.6
2023-07-26T14:56:17.341Z,50.4
2023-07-26T14:59:17.352Z,50.5
2023-07-26T15:02:17.377Z,52
2023-07-26T15:05:17.421Z,51.4
2023-07-26T15:08:17.396Z,51.9
2023-07-26T15:11:17.402Z,55.2
2023-07-26T15:14:17.419Z,61.1
2023-07-26T15:17:17.424Z,70.3
2023-07-26T15:20:17.429Z,76.9
2023-07-26T15:23:20.261Z,80.5
2023-07-26T15:26:17.446Z,80.9
2023-07-26T15:29:17.469Z,82.2
2023-07-26T15:32:17.470Z,84.4
2023-07-26T15:35:17.482Z,84.9
2023-07-26T15:38:17.499Z,85.8
2023-07-26T15:41:17.507Z,85.7
2023-07-26T15:44:17.531Z,85.4
2023-07-26T15:47:17.522Z,83.9
2023-07-26T15:50:17.540Z,82.7
2023-07-26T15:53:17.561Z,81.8
2023-07-26T15:56:17.545Z,80.4
2023-07-26T15:59:17.555Z,80
2023-07-26T16:02:17.556Z,78.2
2023-07-26T16:08:17.813Z,78.1
2023-07-26T16:11:17.591Z,77.9
2023-07-26T16:17:17.589Z,76.6
2023-07-26T16:20:17.594Z,76.2
2023-07-26T16:23:17.609Z,76.2
2023-07-26T16:26:17.607Z,74.4
2023-07-26T16:29:17.615Z,74.8
2023-07-26T16:32:17.669Z,74.1
2023-07-26T16:35:17.628Z,73.8
2023-07-26T16:38:17.641Z,73.8
2023-07-26T16:41:17.641Z,73.6
2023-07-26T16:44:17.659Z,71.3
2023-07-26T16:47:17.736Z,71.1
2023-07-26T16:50:17.699Z,71
2023-07-26T16:53:17.661Z,71.3
2023-07-26T16:56:17.668Z,70.3
2023-07-26T16:59:17.676Z,71.5
2023-07-26T17:02:17.694Z,72.1
2023-07-26T17:05:17.676Z,72.4
2023-07-26T17:08:17.686Z,72.3
2023-07-26T17:11:17.699Z,72.7
2023-07-26T17:14:17.699Z,72.3
2023-07-26T17:17:17.694Z,72.6
2023-07-26T17:20:17.701Z,72.8
2023-07-26T17:23:17.705Z,72.7
2023-07-26T17:26:17.712Z,71.4
2023-07-26T17:29:17.710Z,71.5
2023-07-26T17:32:17.724Z,70.7
2023-07-26T17:35:17.720Z,71.3
2023-07-26T17:38:17.728Z,71.7
2023-07-26T17:41:17.730Z,72.2
2023-07-26T17:44:17.737Z,70.8
2023-07-26T17:47:17.741Z,72.2
2023-07-26T17:50:17.746Z,73.7
2023-07-26T17:53:17.761Z,75.8
2023-07-26T17:56:17.761Z,77.7
2023-07-26T17:59:17.757Z,80.4
2023-07-26T18:02:17.764Z,82.3
2023-07-26T18:05:17.770Z,83
2023-07-26T18:08:17.765Z,83.5
2023-07-26T18:11:17.778Z,85.1
2023-07-26T18:14:17.775Z,86.4
2023-07-26T18:17:17.781Z,86.2
2023-07-26T18:20:17.792Z,86.4
2023-07-26T18:23:17.785Z,86.6
2023-07-26T18:26:17.821Z,87.2
2023-07-26T18:29:17.812Z,87.4
2023-07-26T18:32:17.805Z,86.9
2023-07-26T18:35:17.812Z,86.8
2023-07-26T18:38:17.808Z,86.6
2023-07-26T18:41:17.822Z,86.6
2023-07-26T18:44:17.831Z,86
2023-07-26T18:47:17.851Z,85.7
2023-07-26T18:50:17.836Z,85.6
2023-07-26T18:53:17.844Z,85.7
2023-07-26T18:56:17.851Z,85.9
2023-07-26T18:59:17.855Z,86.6
2023-07-26T19:02:17.872Z,87.3
2023-07-26T19:05:17.856Z,87.6
2023-07-26T19:08:17.865Z,88
2023-07-26T19:11:17.866Z,88.4
2023-07-26T19:14:17.879Z,89
2023-07-26T19:17:17.874Z,89.5
2023-07-26T19:20:17.881Z,89.7
2023-07-26T19:23:18.369Z,89.8
2023-07-26T19:26:17.895Z,89.8
2023-07-26T19:29:17.900Z,90
2023-07-26T19:32:17.895Z,90.3
2023-07-26T19:35:17.913Z,90.7
2023-07-26T19:38:17.908Z,90.7
2023-07-26T19:41:17.913Z,90.7
2023-07-26T19:44:17.919Z,90.8
2023-07-26T19:47:17.935Z,90.8
2023-07-26T19:50:17.939Z,90.8
2023-07-26T19:53:17.948Z,90.7
2023-07-26T19:56:17.941Z,90.7
2023-07-26T19:59:17.961Z,90.5
2023-07-26T20:02:17.965Z,90.3
2023-07-26T20:05:17.963Z,90.1
2023-07-26T20:08:17.967Z,90.1
2023-07-26T20:11:17.960Z,90.1
2023-07-26T20:14:17.972Z,90.2
2023-07-26T20:17:17.969Z,90.4
2023-07-26T20:20:17.976Z,90.6
2023-07-26T20:23:17.992Z,90.8
2023-07-26T20:26:17.989Z,90.8
2023-07-26T20:29:17.998Z,91.2
2023-07-26T20:32:17.995Z,91.3
2023-07-26T20:35:18.004Z,91.6
2023-07-26T20:38:18.001Z,92
2023-07-26T20:41:18.012Z,92
2023-07-26T20:44:18.016Z,92.2
2023-07-26T20:47:18.018Z,92.2
2023-07-26T20:50:18.016Z,92.3
2023-07-26T20:53:18.032Z,92.3
2023-07-26T20:56:18.032Z,92.3
2023-07-26T20:59:18.029Z,92.3
2023-07-26T21:02:18.067Z,92.3
2023-07-26T21:05:18.038Z,92.5
2023-07-26T21:08:18.047Z,92.6
2023-07-26T21:11:18.043Z,92.8
2023-07-26T21:14:18.058Z,93
2023-07-26T21:17:18.072Z,93.2
2023-07-26T21:20:18.058Z,93.3
2023-07-26T21:23:18.058Z,93.5
2023-07-26T21:26:18.070Z,93.6
2023-07-26T21:29:18.093Z,93.7
2023-07-26T21:32:18.082Z,93.9
2023-07-26T21:35:18.078Z,94.1
2023-07-26T21:38:18.083Z,94
2023-07-26T21:41:18.085Z,93.9
2023-07-26T21:44:18.104Z,93.9
2023-07-26T21:47:18.097Z,93.8
2023-07-26T21:50:18.111Z,93.7
2023-07-26T21:53:18.101Z,93.5
2023-07-26T21:56:18.128Z,93.3
2023-07-26T21:59:18.123Z,93.1
2023-07-26T22:02:18.115Z,92.9
2023-07-26T22:05:18.117Z,92.9
2023-07-26T22:08:18.128Z,93
2023-07-26T22:11:18.134Z,92.9
2023-07-26T22:14:18.149Z,92.7
2023-07-26T22:17:18.147Z,92.3
2023-07-26T22:20:18.150Z,91.9
2023-07-26T22:23:18.155Z,91.6
2023-07-26T22:26:20.051Z,91.4
2023-07-26T22:29:18.172Z,91.4
2023-07-26T22:32:18.179Z,91.4
2023-07-26T22:35:18.174Z,91.3
2023-07-26T22:38:18.172Z,91.2
2023-07-26T22:41:18.198Z,91.4
2023-07-26T22:44:18.189Z,91.4
2023-07-26T22:47:18.230Z,91.3
2023-07-26T22:50:18.182Z,91.3
2023-07-26T22:53:18.199Z,91
2023-07-26T22:56:18.194Z,90.8
2023-07-26T22:59:18.211Z,90.6
2023-07-26T23:02:18.201Z,90.7
2023-07-26T23:05:18.244Z,90.9
2023-07-26T23:08:18.220Z,90.9
2023-07-26T23:11:18.220Z,90.9
2023-07-26T23:14:18.223Z,90.9
2023-07-26T23:17:18.233Z,91.1
2023-07-26T23:20:18.234Z,91.3
2023-07-26T23:23:18.232Z,91.5
2023-07-26T23:26:18.237Z,91.8
2023-07-26T23:29:18.258Z,91.8
2023-07-26T23:32:18.248Z,91.8
2023-07-26T23:35:18.243Z,92.1
2023-07-26T23:38:18.249Z,92.1
2023-07-26T23:41:18.254Z,92.2
2023-07-26T23:44:18.270Z,92.2
2023-07-26T23:47:18.265Z,92.3
2023-07-26T23:50:18.277Z,92.4
2023-07-26T23:53:18.293Z,92.5
2023-07-26T23:56:18.283Z,92.3
2023-07-26T23:59:18.287Z,92.2
